Terminal Aerodrome Forecast
Issued by NWS

Home | Current Version | Previous Version | Text Only | Print | Product List | Glossary On
Versions: 1 2 3 4 5 6 7 8 9 10 11 12 13 14 15 16 17 18 19 20 21 22 23 24 25 26 27 28 29 30 31 32
000
FTUS43 KDDC 291120
TAFGCK
TAF
KGCK 291120Z 2912/3012 34008KT P6SM SCT025 BKN250
     FM291700 36011KT P6SM SCT060 BKN110
     FM300600 02011KT P6SM BKN015=

USA.gov is the U.S. government's official web portal to all federal, state and local government web resources and services.